sensor_id;sensor_type;location;lat;lon;timestamp;P1;durP1;ratioP1;P2;durP2;ratioP2
13147;SDS011;6639;50.956;4.242;2023-05-07T00:01:34;3.80;;;2.70;;
13147;SDS011;6639;50.956;4.242;2023-05-07T00:04:01;4.28;;;2.67;;
13147;SDS011;6639;50.956;4.242;2023-05-07T00:06:29;4.47;;;3.08;;
13147;SDS011;6639;50.956;4.242;2023-05-07T00:08:56;4.15;;;2.92;;
13147;SDS011;6639;50.956;4.242;2023-05-07T00:11:24;4.65;;;3.05;;
13147;SDS011;6639;50.956;4.242;2023-05-07T00:13:51;6.38;;;3.50;;
13147;SDS011;6639;50.956;4.242;2023-05-07T00:16:18;4.53;;;3.03;;
13147;SDS011;6639;50.956;4.242;2023-05-07T00:18:45;6.22;;;3.30;;
13147;SDS011;6639;50.956;4.242;2023-05-07T00:21:12;5.05;;;3.20;;
13147;SDS011;6639;50.956;4.242;2023-05-07T00:23:41;9.25;;;3.40;;
13147;SDS011;6639;50.956;4.242;2023-05-07T00:26:08;6.40;;;3.30;;
13147;SDS011;6639;50.956;4.242;2023-05-07T00:28:34;5.35;;;3.10;;
13147;SDS011;6639;50.956;4.242;2023-05-07T00:31:01;4.55;;;3.10;;
13147;SDS011;6639;50.956;4.242;2023-05-07T00:33:28;5.05;;;3.42;;
13147;SDS011;6639;50.956;4.242;2023-05-07T00:35:55;6.13;;;3.30;;
13147;SDS011;6639;50.956;4.242;2023-05-07T00:38:22;5.90;;;3.50;;
13147;SDS011;6639;50.956;4.242;2023-05-07T00:40:50;3.72;;;3.42;;
13147;SDS011;6639;50.956;4.242;2023-05-07T00:43:17;5.15;;;3.28;;
13147;SDS011;6639;50.956;4.242;2023-05-07T00:45:45;6.93;;;3.15;;
13147;SDS011;6639;50.956;4.242;2023-05-07T00:48:12;4.93;;;2.97;;
13147;SDS011;6639;50.956;4.242;2023-05-07T00:50:39;3.20;;;2.75;;
13147;SDS011;6639;50.956;4.242;2023-05-07T00:53:06;3.55;;;3.03;;
13147;SDS011;6639;50.956;4.242;2023-05-07T00:55:34;2.88;;;2.53;;
13147;SDS011;6639;50.956;4.242;2023-05-07T00:58:03;5.32;;;3.35;;
13147;SDS011;6639;50.956;4.242;2023-05-07T01:00:30;3.97;;;2.58;;
13147;SDS011;6639;50.956;4.242;2023-05-07T01:02:57;5.78;;;3.25;;
13147;SDS011;6639;50.956;4.242;2023-05-07T01:05:24;5.30;;;2.88;;
13147;SDS011;6639;50.956;4.242;2023-05-07T01:07:53;5.43;;;3.33;;
13147;SDS011;6639;50.956;4.242;2023-05-07T01:10:21;4.78;;;2.88;;
13147;SDS011;6639;50.956;4.242;2023-05-07T01:12:48;6.28;;;3.42;;
13147;SDS011;6639;50.956;4.242;2023-05-07T01:15:18;5.07;;;3.08;;
13147;SDS011;6639;50.956;4.242;2023-05-07T01:17:45;5.18;;;2.97;;
13147;SDS011;6639;50.956;4.242;2023-05-07T01:20:12;4.88;;;3.30;;
13147;SDS011;6639;50.956;4.242;2023-05-07T01:22:43;3.50;;;3.20;;
13147;SDS011;6639;50.956;4.242;2023-05-07T01:25:11;9.75;;;3.95;;
13147;SDS011;6639;50.956;4.242;2023-05-07T01:27:38;5.47;;;2.97;;
13147;SDS011;6639;50.956;4.242;2023-05-07T01:30:06;3.65;;;2.90;;
13147;SDS011;6639;50.956;4.242;2023-05-07T01:32:35;5.45;;;3.28;;
13147;SDS011;6639;50.956;4.242;2023-05-07T01:35:07;4.88;;;3.28;;
13147;SDS011;6639;50.956;4.242;2023-05-07T01:37:38;4.88;;;3.22;;
13147;SDS011;6639;50.956;4.242;2023-05-07T01:40:07;3.97;;;3.38;;
13147;SDS011;6639;50.956;4.242;2023-05-07T01:42:35;5.07;;;3.13;;
13147;SDS011;6639;50.956;4.242;2023-05-07T01:45:02;3.50;;;3.20;;
13147;SDS011;6639;50.956;4.242;2023-05-07T01:47:30;5.75;;;3.70;;
13147;SDS011;6639;50.956;4.242;2023-05-07T01:49:57;3.30;;;2.90;;
13147;SDS011;6639;50.956;4.242;2023-05-07T01:52:24;4.63;;;3.20;;
13147;SDS011;6639;50.956;4.242;2023-05-07T01:54:51;4.05;;;3.30;;
13147;SDS011;6639;50.956;4.242;2023-05-07T01:57:19;6.47;;;3.15;;
13147;SDS011;6639;50.956;4.242;2023-05-07T01:59:46;3.30;;;3.08;;
13147;SDS011;6639;50.956;4.242;2023-05-07T02:02:13;5.72;;;3.65;;
13147;SDS011;6639;50.956;4.242;2023-05-07T02:04:40;4.97;;;3.50;;
13147;SDS011;6639;50.956;4.242;2023-05-07T02:07:07;5.28;;;3.78;;
13147;SDS011;6639;50.956;4.242;2023-05-07T02:09:34;5.10;;;4.00;;
13147;SDS011;6639;50.956;4.242;2023-05-07T02:12:01;4.28;;;3.83;;
13147;SDS011;6639;50.956;4.242;2023-05-07T02:14:29;7.50;;;3.67;;
13147;SDS011;6639;50.956;4.242;2023-05-07T02:16:56;4.43;;;3.63;;
13147;SDS011;6639;50.956;4.242;2023-05-07T02:19:23;5.10;;;3.80;;
13147;SDS011;6639;50.956;4.242;2023-05-07T02:21:50;7.20;;;3.80;;
13147;SDS011;6639;50.956;4.242;2023-05-07T02:24:18;4.47;;;3.50;;
13147;SDS011;6639;50.956;4.242;2023-05-07T02:26:45;6.95;;;4.10;;
13147;SDS011;6639;50.956;4.242;2023-05-07T02:29:12;5.47;;;3.50;;
13147;SDS011;6639;50.956;4.242;2023-05-07T02:31:40;7.25;;;4.00;;
13147;SDS011;6639;50.956;4.242;2023-05-07T02:34:07;3.60;;;3.25;;
13147;SDS011;6639;50.956;4.242;2023-05-07T02:36:34;5.32;;;3.90;;
13147;SDS011;6639;50.956;4.242;2023-05-07T02:39:01;3.85;;;3.40;;
13147;SDS011;6639;50.956;4.242;2023-05-07T02:41:27;5.35;;;3.47;;
13147;SDS011;6639;50.956;4.242;2023-05-07T02:43:54;5.38;;;3.53;;
13147;SDS011;6639;50.956;4.242;2023-05-07T02:46:21;4.95;;;3.70;;
13147;SDS011;6639;50.956;4.242;2023-05-07T02:48:50;4.43;;;3.63;;
13147;SDS011;6639;50.956;4.242;2023-05-07T02:51:19;4.18;;;2.83;;
13147;SDS011;6639;50.956;4.242;2023-05-07T02:53:47;4.43;;;3.55;;
13147;SDS011;6639;50.956;4.242;2023-05-07T02:56:14;4.70;;;4.30;;
13147;SDS011;6639;50.956;4.242;2023-05-07T02:58:41;5.82;;;3.95;;
13147;SDS011;6639;50.956;4.242;2023-05-07T03:01:08;4.97;;;3.85;;
13147;SDS011;6639;50.956;4.242;2023-05-07T03:03:35;3.90;;;3.58;;
13147;SDS011;6639;50.956;4.242;2023-05-07T03:06:04;6.43;;;4.22;;
13147;SDS011;6639;50.956;4.242;2023-05-07T03:08:31;5.38;;;3.70;;
13147;SDS011;6639;50.956;4.242;2023-05-07T03:10:58;3.80;;;3.45;;
13147;SDS011;6639;50.956;4.242;2023-05-07T03:13:25;4.10;;;3.70;;
13147;SDS011;6639;50.956;4.242;2023-05-07T03:15:52;5.05;;;3.15;;
13147;SDS011;6639;50.956;4.242;2023-05-07T03:18:19;5.18;;;3.75;;
13147;SDS011;6639;50.956;4.242;2023-05-07T03:20:47;4.90;;;3.20;;
13147;SDS011;6639;50.956;4.242;2023-05-07T03:23:16;3.97;;;3.67;;
13147;SDS011;6639;50.956;4.242;2023-05-07T03:25:43;6.65;;;3.65;;
13147;SDS011;6639;50.956;4.242;2023-05-07T03:28:09;6.10;;;3.85;;
13147;SDS011;6639;50.956;4.242;2023-05-07T03:30:36;5.15;;;3.63;;
13147;SDS011;6639;50.956;4.242;2023-05-07T03:33:03;3.83;;;3.47;;
13147;SDS011;6639;50.956;4.242;2023-05-07T03:35:30;4.60;;;3.97;;
13147;SDS011;6639;50.956;4.242;2023-05-07T03:37:57;5.25;;;3.50;;
13147;SDS011;6639;50.956;4.242;2023-05-07T03:40:25;4.80;;;4.40;;
13147;SDS011;6639;50.956;4.242;2023-05-07T03:42:52;4.82;;;4.38;;
13147;SDS011;6639;50.956;4.242;2023-05-07T03:45:19;4.57;;;4.07;;
13147;SDS011;6639;50.956;4.242;2023-05-07T03:47:46;5.35;;;4.50;;
13147;SDS011;6639;50.956;4.242;2023-05-07T03:50:13;6.65;;;3.90;;
13147;SDS011;6639;50.956;4.242;2023-05-07T03:52:40;8.07;;;4.18;;
13147;SDS011;6639;50.956;4.242;2023-05-07T03:55:07;6.07;;;4.20;;
13147;SDS011;6639;50.956;4.242;2023-05-07T03:57:36;5.88;;;4.40;;
13147;SDS011;6639;50.956;4.242;2023-05-07T04:00:03;6.00;;;4.40;;
13147;SDS011;6639;50.956;4.242;2023-05-07T04:02:32;5.00;;;4.30;;
13147;SDS011;6639;50.956;4.242;2023-05-07T04:04:59;6.63;;;4.65;;
13147;SDS011;6639;50.956;4.242;2023-05-07T04:07:26;5.45;;;4.70;;
13147;SDS011;6639;50.956;4.242;2023-05-07T04:09:53;7.25;;;4.60;;
13147;SDS011;6639;50.956;4.242;2023-05-07T04:12:20;4.60;;;4.20;;
13147;SDS011;6639;50.956;4.242;2023-05-07T04:14:48;5.90;;;4.57;;
13147;SDS011;6639;50.956;4.242;2023-05-07T04:17:15;4.32;;;3.65;;
13147;SDS011;6639;50.956;4.242;2023-05-07T04:19:42;5.78;;;4.32;;
13147;SDS011;6639;50.956;4.242;2023-05-07T04:22:10;4.68;;;4.20;;
13147;SDS011;6639;50.956;4.242;2023-05-07T04:24:37;7.38;;;4.55;;
13147;SDS011;6639;50.956;4.242;2023-05-07T04:27:04;4.80;;;4.40;;
13147;SDS011;6639;50.956;4.242;2023-05-07T04:29:31;4.63;;;4.07;;
13147;SDS011;6639;50.956;4.242;2023-05-07T04:31:59;7.10;;;4.78;;
13147;SDS011;6639;50.956;4.242;2023-05-07T04:34:26;4.30;;;3.90;;
13147;SDS011;6639;50.956;4.242;2023-05-07T04:36:53;7.93;;;4.50;;
13147;SDS011;6639;50.956;4.242;2023-05-07T04:39:20;4.82;;;4.20;;
13147;SDS011;6639;50.956;4.242;2023-05-07T04:41:47;5.72;;;4.63;;
13147;SDS011;6639;50.956;4.242;2023-05-07T04:44:14;6.18;;;4.82;;
13147;SDS011;6639;50.956;4.242;2023-05-07T04:46:41;4.82;;;4.13;;
13147;SDS011;6639;50.956;4.242;2023-05-07T04:49:10;8.45;;;5.50;;
13147;SDS011;6639;50.956;4.242;2023-05-07T04:51:36;6.72;;;5.13;;
13147;SDS011;6639;50.956;4.242;2023-05-07T04:54:07;6.18;;;5.00;;
13147;SDS011;6639;50.956;4.242;2023-05-07T04:56:35;4.82;;;4.30;;
13147;SDS011;6639;50.956;4.242;2023-05-07T04:59:02;5.80;;;5.13;;
13147;SDS011;6639;50.956;4.242;2023-05-07T05:01:28;5.97;;;5.40;;
13147;SDS011;6639;50.956;4.242;2023-05-07T05:03:55;7.43;;;5.80;;
13147;SDS011;6639;50.956;4.242;2023-05-07T05:06:24;5.18;;;4.70;;
13147;SDS011;6639;50.956;4.242;2023-05-07T05:08:51;5.40;;;4.53;;
13147;SDS011;6639;50.956;4.242;2023-05-07T05:11:18;5.32;;;4.78;;
13147;SDS011;6639;50.956;4.242;2023-05-07T05:13:44;6.78;;;6.10;;
13147;SDS011;6639;50.956;4.242;2023-05-07T05:16:14;8.50;;;6.15;;
13147;SDS011;6639;50.956;4.242;2023-05-07T05:18:41;6.00;;;5.40;;
13147;SDS011;6639;50.956;4.242;2023-05-07T05:21:08;5.80;;;5.30;;
13147;SDS011;6639;50.956;4.242;2023-05-07T05:23:36;7.13;;;6.28;;
13147;SDS011;6639;50.956;4.242;2023-05-07T05:26:04;8.07;;;6.32;;
13147;SDS011;6639;50.956;4.242;2023-05-07T05:28:31;6.13;;;5.63;;
13147;SDS011;6639;50.956;4.242;2023-05-07T05:30:57;7.05;;;5.47;;
13147;SDS011;6639;50.956;4.242;2023-05-07T05:33:24;7.35;;;6.53;;
13147;SDS011;6639;50.956;4.242;2023-05-07T05:35:51;7.82;;;6.22;;
13147;SDS011;6639;50.956;4.242;2023-05-07T05:38:19;6.25;;;5.75;;
13147;SDS011;6639;50.956;4.242;2023-05-07T05:40:48;6.97;;;6.10;;
13147;SDS011;6639;50.956;4.242;2023-05-07T05:43:15;7.03;;;6.43;;
13147;SDS011;6639;50.956;4.242;2023-05-07T05:45:42;6.65;;;5.93;;
13147;SDS011;6639;50.956;4.242;2023-05-07T05:48:09;7.60;;;6.32;;
13147;SDS011;6639;50.956;4.242;2023-05-07T05:50:36;9.15;;;6.85;;
13147;SDS011;6639;50.956;4.242;2023-05-07T05:53:02;6.93;;;6.20;;
13147;SDS011;6639;50.956;4.242;2023-05-07T05:55:29;6.95;;;6.25;;
13147;SDS011;6639;50.956;4.242;2023-05-07T05:57:58;8.80;;;6.85;;
13147;SDS011;6639;50.956;4.242;2023-05-07T06:00:26;7.22;;;6.15;;
13147;SDS011;6639;50.956;4.242;2023-05-07T06:02:53;8.07;;;6.55;;
13147;SDS011;6639;50.956;4.242;2023-05-07T06:05:20;8.68;;;7.82;;
13147;SDS011;6639;50.956;4.242;2023-05-07T06:07:55;7.88;;;6.85;;
13147;SDS011;6639;50.956;4.242;2023-05-07T06:10:22;8.00;;;6.95;;
13147;SDS011;6639;50.956;4.242;2023-05-07T06:12:49;7.75;;;6.18;;
13147;SDS011;6639;50.956;4.242;2023-05-07T06:15:17;7.10;;;6.32;;
13147;SDS011;6639;50.956;4.242;2023-05-07T06:17:44;7.45;;;6.60;;
13147;SDS011;6639;50.956;4.242;2023-05-07T06:20:11;7.82;;;6.25;;
13147;SDS011;6639;50.956;4.242;2023-05-07T06:22:38;6.97;;;5.22;;
13147;SDS011;6639;50.956;4.242;2023-05-07T06:25:05;6.53;;;5.38;;
13147;SDS011;6639;50.956;4.242;2023-05-07T06:27:33;5.60;;;5.00;;
13147;SDS011;6639;50.956;4.242;2023-05-07T06:30:00;6.70;;;5.28;;
13147;SDS011;6639;50.956;4.242;2023-05-07T06:32:29;6.07;;;5.20;;
13147;SDS011;6639;50.956;4.242;2023-05-07T06:34:55;7.13;;;5.15;;
13147;SDS011;6639;50.956;4.242;2023-05-07T06:37:22;6.00;;;5.38;;
13147;SDS011;6639;50.956;4.242;2023-05-07T06:39:49;5.13;;;4.60;;
13147;SDS011;6639;50.956;4.242;2023-05-07T06:42:16;8.98;;;4.28;;
13147;SDS011;6639;50.956;4.242;2023-05-07T06:44:43;6.25;;;4.32;;
13147;SDS011;6639;50.956;4.242;2023-05-07T06:47:10;7.60;;;3.95;;
13147;SDS011;6639;50.956;4.242;2023-05-07T06:49:39;6.85;;;4.60;;
13147;SDS011;6639;50.956;4.242;2023-05-07T06:52:09;8.88;;;4.32;;
13147;SDS011;6639;50.956;4.242;2023-05-07T06:54:36;7.55;;;4.50;;
13147;SDS011;6639;50.956;4.242;2023-05-07T06:57:03;5.22;;;4.40;;
13147;SDS011;6639;50.956;4.242;2023-05-07T06:59:32;9.77;;;4.25;;
13147;SDS011;6639;50.956;4.242;2023-05-07T07:01:59;6.32;;;4.38;;
13147;SDS011;6639;50.956;4.242;2023-05-07T07:04:26;8.55;;;4.95;;
13147;SDS011;6639;50.956;4.242;2023-05-07T07:06:54;8.25;;;5.03;;
13147;SDS011;6639;50.956;4.242;2023-05-07T07:09:22;7.38;;;5.03;;
13147;SDS011;6639;50.956;4.242;2023-05-07T07:11:49;8.25;;;4.90;;
13147;SDS011;6639;50.956;4.242;2023-05-07T07:14:17;8.48;;;5.20;;
13147;SDS011;6639;50.956;4.242;2023-05-07T07:16:44;5.60;;;4.65;;
13147;SDS011;6639;50.956;4.242;2023-05-07T07:19:11;5.57;;;4.55;;
13147;SDS011;6639;50.956;4.242;2023-05-07T07:21:40;8.75;;;4.55;;
13147;SDS011;6639;50.956;4.242;2023-05-07T07:24:09;5.40;;;4.47;;
13147;SDS011;6639;50.956;4.242;2023-05-07T07:26:36;7.30;;;4.32;;
13147;SDS011;6639;50.956;4.242;2023-05-07T07:29:06;5.20;;;3.58;;
13147;SDS011;6639;50.956;4.242;2023-05-07T07:31:33;5.97;;;3.97;;
13147;SDS011;6639;50.956;4.242;2023-05-07T07:34:01;4.05;;;3.70;;
13147;SDS011;6639;50.956;4.242;2023-05-07T07:36:28;8.07;;;3.55;;
13147;SDS011;6639;50.956;4.242;2023-05-07T07:38:55;5.05;;;3.58;;
13147;SDS011;6639;50.956;4.242;2023-05-07T07:41:24;5.68;;;3.17;;
13147;SDS011;6639;50.956;4.242;2023-05-07T07:43:51;3.85;;;3.42;;
13147;SDS011;6639;50.956;4.242;2023-05-07T07:46:17;6.07;;;3.70;;
13147;SDS011;6639;50.956;4.242;2023-05-07T07:48:44;4.15;;;3.40;;
13147;SDS011;6639;50.956;4.242;2023-05-07T07:51:11;7.18;;;3.33;;
13147;SDS011;6639;50.956;4.242;2023-05-07T07:53:38;4.10;;;2.88;;
13147;SDS011;6639;50.956;4.242;2023-05-07T07:56:06;7.63;;;3.22;;
13147;SDS011;6639;50.956;4.242;2023-05-07T07:58:34;5.00;;;3.63;;
13147;SDS011;6639;50.956;4.242;2023-05-07T08:01:03;7.38;;;2.90;;
13147;SDS011;6639;50.956;4.242;2023-05-07T08:03:30;3.63;;;2.80;;
13147;SDS011;6639;50.956;4.242;2023-05-07T08:05:58;4.63;;;3.17;;
13147;SDS011;6639;50.956;4.242;2023-05-07T08:08:25;5.15;;;3.10;;
13147;SDS011;6639;50.956;4.242;2023-05-07T08:10:51;4.93;;;3.17;;
13147;SDS011;6639;50.956;4.242;2023-05-07T08:13:18;2.95;;;2.63;;
13147;SDS011;6639;50.956;4.242;2023-05-07T08:15:47;4.35;;;2.70;;
13147;SDS011;6639;50.956;4.242;2023-05-07T08:18:14;4.00;;;3.03;;
13147;SDS011;6639;50.956;4.242;2023-05-07T08:20:41;4.90;;;3.10;;
13147;SDS011;6639;50.956;4.242;2023-05-07T08:23:08;6.47;;;3.03;;
13147;SDS011;6639;50.956;4.242;2023-05-07T08:25:35;3.78;;;2.95;;
13147;SDS011;6639;50.956;4.242;2023-05-07T08:28:03;6.65;;;3.28;;
13147;SDS011;6639;50.956;4.242;2023-05-07T08:30:30;7.00;;;3.30;;
13147;SDS011;6639;50.956;4.242;2023-05-07T08:32:59;3.95;;;2.70;;
13147;SDS011;6639;50.956;4.242;2023-05-07T08:35:26;3.78;;;2.88;;
13147;SDS011;6639;50.956;4.242;2023-05-07T08:37:53;4.13;;;2.80;;
13147;SDS011;6639;50.956;4.242;2023-05-07T08:40:20;4.57;;;2.70;;
13147;SDS011;6639;50.956;4.242;2023-05-07T08:42:52;4.40;;;3.13;;
13147;SDS011;6639;50.956;4.242;2023-05-07T08:45:19;4.25;;;2.65;;
13147;SDS011;6639;50.956;4.242;2023-05-07T08:47:47;6.43;;;2.80;;
13147;SDS011;6639;50.956;4.242;2023-05-07T08:50:19;5.25;;;2.63;;
13147;SDS011;6639;50.956;4.242;2023-05-07T08:52:47;6.25;;;3.22;;
13147;SDS011;6639;50.956;4.242;2023-05-07T08:55:14;3.83;;;2.97;;
13147;SDS011;6639;50.956;4.242;2023-05-07T08:57:41;4.22;;;2.83;;
13147;SDS011;6639;50.956;4.242;2023-05-07T09:00:09;4.15;;;2.95;;
13147;SDS011;6639;50.956;4.242;2023-05-07T09:02:36;4.35;;;2.58;;
13147;SDS011;6639;50.956;4.242;2023-05-07T09:05:04;5.93;;;2.85;;
13147;SDS011;6639;50.956;4.242;2023-05-07T09:07:33;4.82;;;2.83;;
13147;SDS011;6639;50.956;4.242;2023-05-07T09:10:01;3.75;;;3.03;;
13147;SDS011;6639;50.956;4.242;2023-05-07T09:12:29;4.55;;;3.25;;
13147;SDS011;6639;50.956;4.242;2023-05-07T09:14:56;4.38;;;3.17;;
13147;SDS011;6639;50.956;4.242;2023-05-07T09:17:23;5.60;;;3.38;;
13147;SDS011;6639;50.956;4.242;2023-05-07T09:19:50;3.58;;;2.88;;
13147;SDS011;6639;50.956;4.242;2023-05-07T09:22:18;6.25;;;3.30;;
13147;SDS011;6639;50.956;4.242;2023-05-07T09:24:48;6.15;;;3.30;;
13147;SDS011;6639;50.956;4.242;2023-05-07T09:27:16;3.40;;;3.10;;
13147;SDS011;6639;50.956;4.242;2023-05-07T09:29:44;4.15;;;2.58;;
13147;SDS011;6639;50.956;4.242;2023-05-07T09:32:11;3.75;;;2.72;;
13147;SDS011;6639;50.956;4.242;2023-05-07T09:34:38;3.70;;;2.60;;
13147;SDS011;6639;50.956;4.242;2023-05-07T09:37:05;3.28;;;2.40;;
13147;SDS011;6639;50.956;4.242;2023-05-07T09:39:39;3.72;;;2.92;;
13147;SDS011;6639;50.956;4.242;2023-05-07T09:42:08;3.88;;;2.60;;
13147;SDS011;6639;50.956;4.242;2023-05-07T09:44:36;2.60;;;2.40;;
13147;SDS011;6639;50.956;4.242;2023-05-07T09:47:04;7.38;;;2.35;;
13147;SDS011;6639;50.956;4.242;2023-05-07T09:49:33;3.92;;;2.53;;
13147;SDS011;6639;50.956;4.242;2023-05-07T09:52:08;4.47;;;2.70;;
13147;SDS011;6639;50.956;4.242;2023-05-07T09:54:59;5.40;;;2.90;;
13147;SDS011;6639;50.956;4.242;2023-05-07T09:57:30;2.58;;;1.77;;
13147;SDS011;6639;50.956;4.242;2023-05-07T09:59:58;2.13;;;1.60;;
13147;SDS011;6639;50.956;4.242;2023-05-07T10:02:29;4.28;;;2.05;;
13147;SDS011;6639;50.956;4.242;2023-05-07T10:04:58;3.95;;;1.80;;
13147;SDS011;6639;50.956;4.242;2023-05-07T10:07:26;2.10;;;1.60;;
13147;SDS011;6639;50.956;4.242;2023-05-07T10:09:55;3.10;;;2.58;;
13147;SDS011;6639;50.956;4.242;2023-05-07T10:12:25;3.70;;;2.35;;
13147;SDS011;6639;50.956;4.242;2023-05-07T10:14:55;2.25;;;2.05;;
13147;SDS011;6639;50.956;4.242;2023-05-07T10:17:23;3.20;;;2.50;;
13147;SDS011;6639;50.956;4.242;2023-05-07T10:19:50;2.78;;;2.33;;
13147;SDS011;6639;50.956;4.242;2023-05-07T10:22:19;4.03;;;2.58;;
13147;SDS011;6639;50.956;4.242;2023-05-07T10:24:48;3.30;;;1.75;;
13147;SDS011;6639;50.956;4.242;2023-05-07T10:27:17;2.50;;;2.17;;
13147;SDS011;6639;50.956;4.242;2023-05-07T10:29:49;3.95;;;2.22;;
13147;SDS011;6639;50.956;4.242;2023-05-07T10:32:33;2.55;;;1.90;;
13147;SDS011;6639;50.956;4.242;2023-05-07T10:35:06;2.35;;;2.15;;
13147;SDS011;6639;50.956;4.242;2023-05-07T10:37:36;4.18;;;2.80;;
13147;SDS011;6639;50.956;4.242;2023-05-07T10:40:04;4.57;;;2.40;;
13147;SDS011;6639;50.956;4.242;2023-05-07T10:42:32;3.50;;;2.92;;
13147;SDS011;6639;50.956;4.242;2023-05-07T10:45:11;3.60;;;2.67;;
13147;SDS011;6639;50.956;4.242;2023-05-07T10:50:35;2.88;;;2.55;;
13147;SDS011;6639;50.956;4.242;2023-05-07T10:53:21;5.00;;;2.50;;
13147;SDS011;6639;50.956;4.242;2023-05-07T10:58:52;4.90;;;2.80;;
13147;SDS011;6639;50.956;4.242;2023-05-07T11:04:19;3.22;;;2.00;;
13147;SDS011;6639;50.956;4.242;2023-05-07T11:12:53;3.28;;;2.25;;
13147;SDS011;6639;50.956;4.242;2023-05-07T11:15:40;2.17;;;1.98;;
13147;SDS011;6639;50.956;4.242;2023-05-07T11:18:09;2.05;;;1.95;;
13147;SDS011;6639;50.956;4.242;2023-05-07T11:20:48;4.57;;;2.08;;
13147;SDS011;6639;50.956;4.242;2023-05-07T11:26:22;2.65;;;2.45;;
13147;SDS011;6639;50.956;4.242;2023-05-07T11:28:50;2.90;;;2.33;;
13147;SDS011;6639;50.956;4.242;2023-05-07T11:31:22;2.83;;;2.30;;
13147;SDS011;6639;50.956;4.242;2023-05-07T11:33:51;3.53;;;2.55;;
13147;SDS011;6639;50.956;4.242;2023-05-07T11:36:21;4.68;;;2.53;;
13147;SDS011;6639;50.956;4.242;2023-05-07T11:38:49;3.08;;;2.50;;
13147;SDS011;6639;50.956;4.242;2023-05-07T11:41:16;3.70;;;2.10;;
13147;SDS011;6639;50.956;4.242;2023-05-07T11:43:54;3.05;;;1.80;;
13147;SDS011;6639;50.956;4.242;2023-05-07T11:46:25;2.50;;;2.00;;
13147;SDS011;6639;50.956;4.242;2023-05-07T11:48:53;1.75;;;1.60;;
13147;SDS011;6639;50.956;4.242;2023-05-07T11:51:22;1.85;;;1.65;;
13147;SDS011;6639;50.956;4.242;2023-05-07T11:54:00;3.70;;;1.73;;
13147;SDS011;6639;50.956;4.242;2023-05-07T11:56:33;2.03;;;1.80;;
13147;SDS011;6639;50.956;4.242;2023-05-07T11:59:01;2.08;;;1.95;;
13147;SDS011;6639;50.956;4.242;2023-05-07T12:01:36;2.78;;;1.92;;
13147;SDS011;6639;50.956;4.242;2023-05-07T12:04:03;2.45;;;2.25;;
13147;SDS011;6639;50.956;4.242;2023-05-07T12:06:35;2.65;;;2.45;;
13147;SDS011;6639;50.956;4.242;2023-05-07T12:09:03;3.50;;;2.42;;
13147;SDS011;6639;50.956;4.242;2023-05-07T12:11:32;4.50;;;2.17;;
13147;SDS011;6639;50.956;4.242;2023-05-07T12:13:59;2.17;;;1.65;;
13147;SDS011;6639;50.956;4.242;2023-05-07T12:16:26;2.20;;;1.85;;
13147;SDS011;6639;50.956;4.242;2023-05-07T12:18:54;4.82;;;2.33;;
13147;SDS011;6639;50.956;4.242;2023-05-07T12:21:24;1.75;;;1.65;;
13147;SDS011;6639;50.956;4.242;2023-05-07T12:23:52;3.58;;;1.95;;
13147;SDS011;6639;50.956;4.242;2023-05-07T12:26:19;2.53;;;2.13;;
13147;SDS011;6639;50.956;4.242;2023-05-07T12:28:47;2.53;;;1.85;;
13147;SDS011;6639;50.956;4.242;2023-05-07T12:31:14;2.53;;;1.85;;
13147;SDS011;6639;50.956;4.242;2023-05-07T12:33:41;2.20;;;2.10;;
13147;SDS011;6639;50.956;4.242;2023-05-07T12:36:09;2.10;;;1.90;;
13147;SDS011;6639;50.956;4.242;2023-05-07T12:38:42;2.38;;;2.08;;
13147;SDS011;6639;50.956;4.242;2023-05-07T12:41:11;2.20;;;2.00;;
13147;SDS011;6639;50.956;4.242;2023-05-07T12:43:38;1.80;;;1.70;;
13147;SDS011;6639;50.956;4.242;2023-05-07T12:46:05;3.35;;;2.20;;
13147;SDS011;6639;50.956;4.242;2023-05-07T12:48:33;2.63;;;2.42;;
13147;SDS011;6639;50.956;4.242;2023-05-07T12:51:05;3.33;;;2.65;;
13147;SDS011;6639;50.956;4.242;2023-05-07T12:53:39;3.00;;;2.60;;
13147;SDS011;6639;50.956;4.242;2023-05-07T12:56:07;2.75;;;2.53;;
13147;SDS011;6639;50.956;4.242;2023-05-07T12:58:49;2.70;;;2.50;;
13147;SDS011;6639;50.956;4.242;2023-05-07T13:01:16;3.30;;;3.00;;
13147;SDS011;6639;50.956;4.242;2023-05-07T13:03:47;2.90;;;2.70;;
13147;SDS011;6639;50.956;4.242;2023-05-07T13:06:15;4.35;;;4.00;;
13147;SDS011;6639;50.956;4.242;2023-05-07T13:08:42;4.38;;;4.03;;
13147;SDS011;6639;50.956;4.242;2023-05-07T13:11:09;4.43;;;4.07;;
13147;SDS011;6639;50.956;4.242;2023-05-07T13:13:37;4.68;;;4.28;;
13147;SDS011;6639;50.956;4.242;2023-05-07T13:16:08;4.43;;;4.07;;
13147;SDS011;6639;50.956;4.242;2023-05-07T13:18:35;5.18;;;4.80;;
13147;SDS011;6639;50.956;4.242;2023-05-07T13:21:04;5.38;;;4.95;;
13147;SDS011;6639;50.956;4.242;2023-05-07T13:23:31;5.82;;;5.05;;
13147;SDS011;6639;50.956;4.242;2023-05-07T13:25:58;5.40;;;4.90;;
13147;SDS011;6639;50.956;4.242;2023-05-07T13:28:25;4.80;;;4.40;;
13147;SDS011;6639;50.956;4.242;2023-05-07T13:30:52;4.70;;;4.40;;
13147;SDS011;6639;50.956;4.242;2023-05-07T13:33:21;5.05;;;4.72;;
13147;SDS011;6639;50.956;4.242;2023-05-07T13:35:49;6.20;;;4.45;;
13147;SDS011;6639;50.956;4.242;2023-05-07T13:38:19;3.85;;;3.55;;
13147;SDS011;6639;50.956;4.242;2023-05-07T13:40:46;4.07;;;3.72;;
13147;SDS011;6639;50.956;4.242;2023-05-07T13:43:13;3.67;;;3.45;;
13147;SDS011;6639;50.956;4.242;2023-05-07T13:45:42;4.20;;;3.58;;
13147;SDS011;6639;50.956;4.242;2023-05-07T13:48:09;3.92;;;3.72;;
13147;SDS011;6639;50.956;4.242;2023-05-07T13:50:37;3.58;;;3.33;;
13147;SDS011;6639;50.956;4.242;2023-05-07T13:53:04;4.13;;;3.15;;
13147;SDS011;6639;50.956;4.242;2023-05-07T13:55:31;3.58;;;3.28;;
13147;SDS011;6639;50.956;4.242;2023-05-07T13:57:59;3.40;;;3.20;;
13147;SDS011;6639;50.956;4.242;2023-05-07T14:00:27;3.10;;;2.90;;
13147;SDS011;6639;50.956;4.242;2023-05-07T14:02:55;3.50;;;3.20;;
13147;SDS011;6639;50.956;4.242;2023-05-07T14:05:22;3.85;;;3.50;;
13147;SDS011;6639;50.956;4.242;2023-05-07T14:07:51;4.00;;;3.60;;
13147;SDS011;6639;50.956;4.242;2023-05-07T14:10:18;4.22;;;3.83;;
13147;SDS011;6639;50.956;4.242;2023-05-07T14:12:45;3.92;;;3.72;;
13147;SDS011;6639;50.956;4.242;2023-05-07T14:15:13;3.88;;;3.55;;
13147;SDS011;6639;50.956;4.242;2023-05-07T14:17:41;4.18;;;3.78;;
13147;SDS011;6639;50.956;4.242;2023-05-07T14:20:08;4.68;;;4.28;;
13147;SDS011;6639;50.956;4.242;2023-05-07T14:22:36;4.00;;;3.67;;
13147;SDS011;6639;50.956;4.242;2023-05-07T14:25:05;3.63;;;3.33;;
13147;SDS011;6639;50.956;4.242;2023-05-07T14:27:32;3.33;;;3.13;;
13147;SDS011;6639;50.956;4.242;2023-05-07T14:29:59;3.03;;;2.83;;
13147;SDS011;6639;50.956;4.242;2023-05-07T14:32:26;2.97;;;2.78;;
13147;SDS011;6639;50.956;4.242;2023-05-07T14:34:53;2.88;;;2.60;;
13147;SDS011;6639;50.956;4.242;2023-05-07T14:37:20;2.53;;;2.38;;
13147;SDS011;6639;50.956;4.242;2023-05-07T14:39:47;2.72;;;2.53;;
13147;SDS011;6639;50.956;4.242;2023-05-07T14:42:17;2.67;;;2.47;;
13147;SDS011;6639;50.956;4.242;2023-05-07T14:44:44;3.40;;;2.25;;
13147;SDS011;6639;50.956;4.242;2023-05-07T14:47:11;2.65;;;2.45;;
13147;SDS011;6639;50.956;4.242;2023-05-07T14:49:38;2.85;;;2.38;;
13147;SDS011;6639;50.956;4.242;2023-05-07T14:52:08;3.33;;;2.50;;
13147;SDS011;6639;50.956;4.242;2023-05-07T14:54:35;2.67;;;2.47;;
13147;SDS011;6639;50.956;4.242;2023-05-07T14:57:02;2.65;;;2.45;;
13147;SDS011;6639;50.956;4.242;2023-05-07T14:59:32;3.00;;;2.50;;
13147;SDS011;6639;50.956;4.242;2023-05-07T15:01:59;2.80;;;2.60;;
13147;SDS011;6639;50.956;4.242;2023-05-07T15:04:37;2.53;;;2.33;;
13147;SDS011;6639;50.956;4.242;2023-05-07T15:07:05;2.65;;;2.20;;
13147;SDS011;6639;50.956;4.242;2023-05-07T15:09:32;3.03;;;1.92;;
13147;SDS011;6639;50.956;4.242;2023-05-07T15:11:59;2.45;;;1.90;;
13147;SDS011;6639;50.956;4.242;2023-05-07T15:14:27;2.92;;;2.33;;
13147;SDS011;6639;50.956;4.242;2023-05-07T15:16:55;2.50;;;2.30;;
13147;SDS011;6639;50.956;4.242;2023-05-07T15:19:22;3.00;;;2.42;;
13147;SDS011;6639;50.956;4.242;2023-05-07T15:21:53;2.50;;;2.03;;
13147;SDS011;6639;50.956;4.242;2023-05-07T15:24:20;2.13;;;1.73;;